sensor_id;sensor_type;location;lat;lon;timestamp;P1;durP1;ratioP1;P2;durP2;ratioP2
33138;SDS011;19501;50.948;5.316;2022-12-19T00:01:27;51.97;;;19.73;;
33138;SDS011;19501;50.948;5.316;2022-12-19T00:03:59;52.55;;;19.90;;
33138;SDS011;19501;50.948;5.316;2022-12-19T00:06:28;56.90;;;22.75;;
33138;SDS011;19501;50.948;5.316;2022-12-19T00:08:54;49.03;;;20.25;;
33138;SDS011;19501;50.948;5.316;2022-12-19T00:11:23;56.45;;;23.13;;
33138;SDS011;19501;50.948;5.316;2022-12-19T00:13:49;52.38;;;22.13;;
33138;SDS011;19501;50.948;5.316;2022-12-19T00:16:16;50.85;;;21.90;;
33138;SDS011;19501;50.948;5.316;2022-12-19T00:18:54;61.17;;;23.92;;
33138;SDS011;19501;50.948;5.316;2022-12-19T00:21:22;49.85;;;21.67;;
33138;SDS011;19501;50.948;5.316;2022-12-19T00:23:49;49.97;;;20.92;;
33138;SDS011;19501;50.948;5.316;2022-12-19T00:26:16;49.53;;;17.77;;
33138;SDS011;19501;50.948;5.316;2022-12-19T00:28:51;48.40;;;21.80;;
33138;SDS011;19501;50.948;5.316;2022-12-19T00:31:19;48.05;;;19.27;;
33138;SDS011;19501;50.948;5.316;2022-12-19T00:33:46;47.83;;;20.50;;
33138;SDS011;19501;50.948;5.316;2022-12-19T00:36:20;51.25;;;22.08;;
33138;SDS011;19501;50.948;5.316;2022-12-19T00:38:47;50.13;;;20.52;;
33138;SDS011;19501;50.948;5.316;2022-12-19T00:41:21;47.33;;;18.30;;
33138;SDS011;19501;50.948;5.316;2022-12-19T00:43:53;45.80;;;17.80;;
33138;SDS011;19501;50.948;5.316;2022-12-19T00:46:21;50.50;;;20.50;;
33138;SDS011;19501;50.948;5.316;2022-12-19T00:48:47;46.90;;;20.17;;
33138;SDS011;19501;50.948;5.316;2022-12-19T00:51:17;46.55;;;18.27;;
33138;SDS011;19501;50.948;5.316;2022-12-19T00:53:45;45.38;;;19.90;;
33138;SDS011;19501;50.948;5.316;2022-12-19T00:56:14;49.35;;;19.40;;
33138;SDS011;19501;50.948;5.316;2022-12-19T00:58:42;45.83;;;18.80;;
33138;SDS011;19501;50.948;5.316;2022-12-19T01:01:10;43.83;;;18.70;;
33138;SDS011;19501;50.948;5.316;2022-12-19T01:03:38;39.40;;;17.15;;
33138;SDS011;19501;50.948;5.316;2022-12-19T01:06:04;45.30;;;17.02;;
33138;SDS011;19501;50.948;5.316;2022-12-19T01:08:31;46.22;;;19.02;;
33138;SDS011;19501;50.948;5.316;2022-12-19T01:10:57;45.30;;;19.50;;
33138;SDS011;19501;50.948;5.316;2022-12-19T01:13:24;49.90;;;19.40;;
33138;SDS011;19501;50.948;5.316;2022-12-19T01:15:52;36.38;;;15.32;;
33138;SDS011;19501;50.948;5.316;2022-12-19T01:18:17;40.50;;;15.93;;
33138;SDS011;19501;50.948;5.316;2022-12-19T01:20:44;42.33;;;17.25;;
33138;SDS011;19501;50.948;5.316;2022-12-19T01:23:30;41.72;;;17.65;;
33138;SDS011;19501;50.948;5.316;2022-12-19T01:25:56;37.70;;;16.77;;
33138;SDS011;19501;50.948;5.316;2022-12-19T01:28:22;42.90;;;18.17;;
33138;SDS011;19501;50.948;5.316;2022-12-19T01:30:48;42.90;;;16.40;;
33138;SDS011;19501;50.948;5.316;2022-12-19T01:33:14;39.05;;;17.92;;
33138;SDS011;19501;50.948;5.316;2022-12-19T01:35:41;38.70;;;16.35;;
33138;SDS011;19501;50.948;5.316;2022-12-19T01:38:11;39.67;;;16.45;;
33138;SDS011;19501;50.948;5.316;2022-12-19T01:40:48;41.00;;;17.65;;
33138;SDS011;19501;50.948;5.316;2022-12-19T01:43:18;37.53;;;16.52;;
33138;SDS011;19501;50.948;5.316;2022-12-19T01:45:45;41.25;;;16.90;;
33138;SDS011;19501;50.948;5.316;2022-12-19T01:48:18;35.42;;;15.70;;
33138;SDS011;19501;50.948;5.316;2022-12-19T01:53:18;41.95;;;17.33;;
33138;SDS011;19501;50.948;5.316;2022-12-19T01:55:46;39.03;;;16.77;;
33138;SDS011;19501;50.948;5.316;2022-12-19T01:58:12;43.10;;;17.90;;
33138;SDS011;19501;50.948;5.316;2022-12-19T02:00:41;32.70;;;12.93;;
33138;SDS011;19501;50.948;5.316;2022-12-19T02:03:21;45.15;;;17.27;;
33138;SDS011;19501;50.948;5.316;2022-12-19T02:05:50;39.15;;;16.75;;
33138;SDS011;19501;50.948;5.316;2022-12-19T02:08:16;40.38;;;16.83;;
33138;SDS011;19501;50.948;5.316;2022-12-19T02:10:42;43.65;;;16.98;;
33138;SDS011;19501;50.948;5.316;2022-12-19T02:13:08;41.80;;;17.15;;
33138;SDS011;19501;50.948;5.316;2022-12-19T02:18:41;43.25;;;17.63;;
33138;SDS011;19501;50.948;5.316;2022-12-19T02:26:57;43.15;;;17.30;;
33138;SDS011;19501;50.948;5.316;2022-12-19T02:32:06;41.53;;;16.02;;
33138;SDS011;19501;50.948;5.316;2022-12-19T02:35:05;44.00;;;18.02;;
33138;SDS011;19501;50.948;5.316;2022-12-19T02:37:44;42.13;;;17.60;;
33138;SDS011;19501;50.948;5.316;2022-12-19T02:40:20;42.53;;;16.52;;
33138;SDS011;19501;50.948;5.316;2022-12-19T02:42:56;41.45;;;16.92;;
33138;SDS011;19501;50.948;5.316;2022-12-19T02:45:24;41.72;;;18.50;;
33138;SDS011;19501;50.948;5.316;2022-12-19T02:47:54;41.83;;;16.10;;
33138;SDS011;19501;50.948;5.316;2022-12-19T02:50:22;44.20;;;16.75;;
33138;SDS011;19501;50.948;5.316;2022-12-19T02:52:48;44.35;;;18.10;;
33138;SDS011;19501;50.948;5.316;2022-12-19T02:55:23;40.10;;;16.02;;
33138;SDS011;19501;50.948;5.316;2022-12-19T03:00:52;42.47;;;16.08;;
33138;SDS011;19501;50.948;5.316;2022-12-19T03:06:44;41.50;;;16.50;;
33138;SDS011;19501;50.948;5.316;2022-12-19T03:11:50;38.25;;;16.83;;
33138;SDS011;19501;50.948;5.316;2022-12-19T03:14:29;42.20;;;15.48;;
33138;SDS011;19501;50.948;5.316;2022-12-19T03:17:00;39.97;;;15.90;;
33138;SDS011;19501;50.948;5.316;2022-12-19T03:19:28;29.15;;;12.02;;
33138;SDS011;19501;50.948;5.316;2022-12-19T03:21:54;35.25;;;14.60;;
33138;SDS011;19501;50.948;5.316;2022-12-19T03:24:21;32.20;;;11.82;;
33138;SDS011;19501;50.948;5.316;2022-12-19T03:26:49;39.80;;;15.95;;
33138;SDS011;19501;50.948;5.316;2022-12-19T03:29:24;36.35;;;14.70;;
33138;SDS011;19501;50.948;5.316;2022-12-19T03:31:59;35.60;;;14.15;;
33138;SDS011;19501;50.948;5.316;2022-12-19T03:34:31;37.63;;;15.27;;
33138;SDS011;19501;50.948;5.316;2022-12-19T03:37:03;41.08;;;15.85;;
33138;SDS011;19501;50.948;5.316;2022-12-19T03:39:32;33.65;;;14.93;;
33138;SDS011;19501;50.948;5.316;2022-12-19T03:42:00;35.03;;;12.82;;
33138;SDS011;19501;50.948;5.316;2022-12-19T03:44:45;33.95;;;14.45;;
33138;SDS011;19501;50.948;5.316;2022-12-19T03:47:25;39.92;;;13.40;;
33138;SDS011;19501;50.948;5.316;2022-12-19T03:49:57;36.20;;;14.40;;
33138;SDS011;19501;50.948;5.316;2022-12-19T03:55:00;39.75;;;15.18;;
33138;SDS011;19501;50.948;5.316;2022-12-19T03:57:34;32.88;;;12.40;;
33138;SDS011;19501;50.948;5.316;2022-12-19T04:00:15;35.78;;;15.25;;
33138;SDS011;19501;50.948;5.316;2022-12-19T04:02:43;32.22;;;12.80;;
33138;SDS011;19501;50.948;5.316;2022-12-19T04:05:33;36.03;;;14.02;;
33138;SDS011;19501;50.948;5.316;2022-12-19T04:08:03;37.85;;;14.88;;
33138;SDS011;19501;50.948;5.316;2022-12-19T04:10:33;37.05;;;14.88;;
33138;SDS011;19501;50.948;5.316;2022-12-19T04:13:12;31.70;;;12.73;;
33138;SDS011;19501;50.948;5.316;2022-12-19T04:15:57;34.03;;;13.10;;
33138;SDS011;19501;50.948;5.316;2022-12-19T04:18:31;32.55;;;12.90;;
33138;SDS011;19501;50.948;5.316;2022-12-19T04:21:03;34.15;;;14.18;;
33138;SDS011;19501;50.948;5.316;2022-12-19T04:23:49;31.08;;;13.13;;
33138;SDS011;19501;50.948;5.316;2022-12-19T04:26:19;34.85;;;13.05;;
33138;SDS011;19501;50.948;5.316;2022-12-19T04:28:51;32.88;;;13.60;;
33138;SDS011;19501;50.948;5.316;2022-12-19T04:31:21;30.38;;;13.23;;
33138;SDS011;19501;50.948;5.316;2022-12-19T04:33:47;35.35;;;14.15;;
33138;SDS011;19501;50.948;5.316;2022-12-19T04:36:14;29.65;;;12.35;;
33138;SDS011;19501;50.948;5.316;2022-12-19T04:38:40;34.83;;;13.45;;
33138;SDS011;19501;50.948;5.316;2022-12-19T04:41:06;31.65;;;13.63;;
33138;SDS011;19501;50.948;5.316;2022-12-19T04:43:31;29.40;;;12.38;;
33138;SDS011;19501;50.948;5.316;2022-12-19T04:45:57;28.75;;;12.05;;
33138;SDS011;19501;50.948;5.316;2022-12-19T04:48:24;31.30;;;12.48;;
33138;SDS011;19501;50.948;5.316;2022-12-19T04:50:50;28.25;;;11.10;;
33138;SDS011;19501;50.948;5.316;2022-12-19T04:53:16;26.33;;;10.90;;
33138;SDS011;19501;50.948;5.316;2022-12-19T04:55:42;24.30;;;9.65;;
33138;SDS011;19501;50.948;5.316;2022-12-19T04:58:08;25.02;;;9.90;;
33138;SDS011;19501;50.948;5.316;2022-12-19T05:00:33;26.98;;;11.80;;
33138;SDS011;19501;50.948;5.316;2022-12-19T05:02:59;26.33;;;11.35;;
33138;SDS011;19501;50.948;5.316;2022-12-19T05:05:25;23.88;;;9.60;;
33138;SDS011;19501;50.948;5.316;2022-12-19T05:07:51;25.02;;;10.73;;
33138;SDS011;19501;50.948;5.316;2022-12-19T05:10:16;24.20;;;10.05;;
33138;SDS011;19501;50.948;5.316;2022-12-19T05:12:42;29.95;;;11.15;;
33138;SDS011;19501;50.948;5.316;2022-12-19T05:15:08;25.38;;;9.73;;
33138;SDS011;19501;50.948;5.316;2022-12-19T05:17:34;23.55;;;9.85;;
33138;SDS011;19501;50.948;5.316;2022-12-19T05:20:00;25.15;;;10.10;;
33138;SDS011;19501;50.948;5.316;2022-12-19T05:22:26;25.38;;;9.88;;
33138;SDS011;19501;50.948;5.316;2022-12-19T05:24:54;25.90;;;10.45;;
33138;SDS011;19501;50.948;5.316;2022-12-19T05:27:19;24.38;;;9.75;;
33138;SDS011;19501;50.948;5.316;2022-12-19T05:29:45;25.35;;;9.60;;
33138;SDS011;19501;50.948;5.316;2022-12-19T05:32:11;23.88;;;9.60;;
33138;SDS011;19501;50.948;5.316;2022-12-19T05:34:36;21.48;;;9.23;;
33138;SDS011;19501;50.948;5.316;2022-12-19T05:37:02;24.95;;;10.45;;
33138;SDS011;19501;50.948;5.316;2022-12-19T05:39:28;21.33;;;7.53;;
33138;SDS011;19501;50.948;5.316;2022-12-19T05:41:54;21.10;;;8.90;;
33138;SDS011;19501;50.948;5.316;2022-12-19T05:44:20;16.40;;;5.75;;
33138;SDS011;19501;50.948;5.316;2022-12-19T05:46:48;23.08;;;8.40;;
33138;SDS011;19501;50.948;5.316;2022-12-19T05:49:14;23.05;;;8.23;;
33138;SDS011;19501;50.948;5.316;2022-12-19T05:51:40;23.77;;;9.55;;
33138;SDS011;19501;50.948;5.316;2022-12-19T05:54:05;22.52;;;8.95;;
33138;SDS011;19501;50.948;5.316;2022-12-19T05:56:31;21.35;;;9.15;;
33138;SDS011;19501;50.948;5.316;2022-12-19T05:58:57;24.85;;;9.05;;
33138;SDS011;19501;50.948;5.316;2022-12-19T06:01:24;23.73;;;9.85;;
33138;SDS011;19501;50.948;5.316;2022-12-19T06:03:51;21.75;;;8.90;;
33138;SDS011;19501;50.948;5.316;2022-12-19T06:06:19;21.55;;;8.82;;
33138;SDS011;19501;50.948;5.316;2022-12-19T06:08:51;23.10;;;8.95;;
33138;SDS011;19501;50.948;5.316;2022-12-19T06:11:18;25.42;;;10.27;;
33138;SDS011;19501;50.948;5.316;2022-12-19T06:13:44;26.92;;;9.15;;
33138;SDS011;19501;50.948;5.316;2022-12-19T06:16:11;22.02;;;8.63;;
33138;SDS011;19501;50.948;5.316;2022-12-19T06:18:39;20.73;;;9.25;;
33138;SDS011;19501;50.948;5.316;2022-12-19T06:21:06;22.23;;;8.55;;
33138;SDS011;19501;50.948;5.316;2022-12-19T06:23:37;21.23;;;8.45;;
33138;SDS011;19501;50.948;5.316;2022-12-19T06:26:03;23.02;;;9.27;;
33138;SDS011;19501;50.948;5.316;2022-12-19T06:28:31;25.33;;;8.43;;
33138;SDS011;19501;50.948;5.316;2022-12-19T06:30:58;22.20;;;9.02;;
33138;SDS011;19501;50.948;5.316;2022-12-19T06:33:26;22.00;;;9.18;;
33138;SDS011;19501;50.948;5.316;2022-12-19T06:36:03;27.48;;;10.52;;
33138;SDS011;19501;50.948;5.316;2022-12-19T06:38:32;22.77;;;9.00;;
33138;SDS011;19501;50.948;5.316;2022-12-19T06:40:58;22.15;;;9.18;;
33138;SDS011;19501;50.948;5.316;2022-12-19T06:43:43;24.08;;;8.82;;
33138;SDS011;19501;50.948;5.316;2022-12-19T06:46:09;19.23;;;8.20;;
33138;SDS011;19501;50.948;5.316;2022-12-19T06:48:35;19.60;;;7.40;;
33138;SDS011;19501;50.948;5.316;2022-12-19T06:51:01;21.15;;;8.00;;
33138;SDS011;19501;50.948;5.316;2022-12-19T06:53:27;21.08;;;8.35;;
33138;SDS011;19501;50.948;5.316;2022-12-19T06:55:54;22.30;;;8.30;;
33138;SDS011;19501;50.948;5.316;2022-12-19T06:58:22;16.60;;;7.25;;
33138;SDS011;19501;50.948;5.316;2022-12-19T07:00:48;20.67;;;7.55;;
33138;SDS011;19501;50.948;5.316;2022-12-19T07:03:15;21.35;;;8.20;;
33138;SDS011;19501;50.948;5.316;2022-12-19T07:05:47;21.10;;;7.82;;
33138;SDS011;19501;50.948;5.316;2022-12-19T07:08:14;22.45;;;8.70;;
33138;SDS011;19501;50.948;5.316;2022-12-19T07:10:39;18.63;;;7.90;;
33138;SDS011;19501;50.948;5.316;2022-12-19T07:13:06;21.77;;;8.45;;
33138;SDS011;19501;50.948;5.316;2022-12-19T07:15:32;17.77;;;6.82;;
33138;SDS011;19501;50.948;5.316;2022-12-19T07:17:59;22.63;;;8.32;;
33138;SDS011;19501;50.948;5.316;2022-12-19T07:20:28;19.45;;;7.07;;
33138;SDS011;19501;50.948;5.316;2022-12-19T07:22:57;20.83;;;8.20;;
33138;SDS011;19501;50.948;5.316;2022-12-19T07:25:22;21.05;;;8.07;;
33138;SDS011;19501;50.948;5.316;2022-12-19T07:27:48;18.73;;;6.30;;
33138;SDS011;19501;50.948;5.316;2022-12-19T07:30:15;19.73;;;8.05;;
33138;SDS011;19501;50.948;5.316;2022-12-19T07:32:41;19.42;;;8.30;;
33138;SDS011;19501;50.948;5.316;2022-12-19T07:35:07;20.40;;;7.95;;
33138;SDS011;19501;50.948;5.316;2022-12-19T07:37:33;24.02;;;7.75;;
33138;SDS011;19501;50.948;5.316;2022-12-19T07:39:58;19.85;;;7.55;;
33138;SDS011;19501;50.948;5.316;2022-12-19T07:42:24;21.63;;;8.43;;
33138;SDS011;19501;50.948;5.316;2022-12-19T07:44:51;20.52;;;6.65;;
33138;SDS011;19501;50.948;5.316;2022-12-19T07:47:16;21.70;;;7.72;;
33138;SDS011;19501;50.948;5.316;2022-12-19T07:49:42;21.88;;;8.35;;
33138;SDS011;19501;50.948;5.316;2022-12-19T07:52:09;19.40;;;7.70;;
33138;SDS011;19501;50.948;5.316;2022-12-19T07:54:35;23.17;;;8.68;;
33138;SDS011;19501;50.948;5.316;2022-12-19T07:57:01;19.75;;;8.15;;
33138;SDS011;19501;50.948;5.316;2022-12-19T07:59:26;19.90;;;8.40;;
33138;SDS011;19501;50.948;5.316;2022-12-19T08:01:52;22.77;;;7.60;;
33138;SDS011;19501;50.948;5.316;2022-12-19T08:04:18;22.90;;;8.48;;
33138;SDS011;19501;50.948;5.316;2022-12-19T08:06:44;20.98;;;7.75;;
33138;SDS011;19501;50.948;5.316;2022-12-19T08:09:12;20.42;;;7.60;;
33138;SDS011;19501;50.948;5.316;2022-12-19T08:11:38;18.65;;;6.93;;
33138;SDS011;19501;50.948;5.316;2022-12-19T08:14:03;23.10;;;7.97;;
33138;SDS011;19501;50.948;5.316;2022-12-19T08:16:29;19.45;;;6.40;;
33138;SDS011;19501;50.948;5.316;2022-12-19T08:18:55;19.52;;;7.78;;
33138;SDS011;19501;50.948;5.316;2022-12-19T08:21:20;25.08;;;7.55;;
33138;SDS011;19501;50.948;5.316;2022-12-19T08:23:46;15.57;;;6.05;;
33138;SDS011;19501;50.948;5.316;2022-12-19T08:26:14;21.38;;;7.00;;
33138;SDS011;19501;50.948;5.316;2022-12-19T08:28:45;17.58;;;6.03;;
33138;SDS011;19501;50.948;5.316;2022-12-19T08:31:13;19.83;;;7.32;;
33138;SDS011;19501;50.948;5.316;2022-12-19T08:33:41;18.67;;;6.95;;
33138;SDS011;19501;50.948;5.316;2022-12-19T08:36:08;17.98;;;6.18;;
33138;SDS011;19501;50.948;5.316;2022-12-19T08:38:36;17.27;;;6.63;;
33138;SDS011;19501;50.948;5.316;2022-12-19T08:41:03;16.02;;;5.80;;
33138;SDS011;19501;50.948;5.316;2022-12-19T08:43:29;15.45;;;6.32;;
33138;SDS011;19501;50.948;5.316;2022-12-19T08:45:55;16.95;;;5.63;;
33138;SDS011;19501;50.948;5.316;2022-12-19T08:48:21;16.83;;;6.43;;
33138;SDS011;19501;50.948;5.316;2022-12-19T08:50:50;16.27;;;6.60;;
33138;SDS011;19501;50.948;5.316;2022-12-19T08:53:20;17.70;;;6.80;;
33138;SDS011;19501;50.948;5.316;2022-12-19T08:55:46;16.45;;;6.60;;
33138;SDS011;19501;50.948;5.316;2022-12-19T08:58:19;15.35;;;5.40;;
33138;SDS011;19501;50.948;5.316;2022-12-19T09:00:44;17.48;;;5.97;;
33138;SDS011;19501;50.948;5.316;2022-12-19T09:03:10;16.77;;;6.45;;
33138;SDS011;19501;50.948;5.316;2022-12-19T09:05:37;14.90;;;5.53;;
33138;SDS011;19501;50.948;5.316;2022-12-19T09:08:03;16.35;;;6.00;;
33138;SDS011;19501;50.948;5.316;2022-12-19T09:10:29;16.52;;;5.93;;
33138;SDS011;19501;50.948;5.316;2022-12-19T09:12:55;15.15;;;5.80;;
33138;SDS011;19501;50.948;5.316;2022-12-19T09:15:21;15.57;;;6.38;;
33138;SDS011;19501;50.948;5.316;2022-12-19T09:17:47;19.63;;;6.68;;
33138;SDS011;19501;50.948;5.316;2022-12-19T09:20:13;14.20;;;5.63;;
33138;SDS011;19501;50.948;5.316;2022-12-19T09:22:39;16.05;;;6.18;;
33138;SDS011;19501;50.948;5.316;2022-12-19T09:25:07;16.48;;;6.40;;
33138;SDS011;19501;50.948;5.316;2022-12-19T09:27:34;14.40;;;5.35;;
33138;SDS011;19501;50.948;5.316;2022-12-19T09:30:02;12.95;;;5.63;;
33138;SDS011;19501;50.948;5.316;2022-12-19T09:32:29;15.85;;;5.75;;
33138;SDS011;19501;50.948;5.316;2022-12-19T09:34:55;18.02;;;5.82;;
33138;SDS011;19501;50.948;5.316;2022-12-19T09:37:21;17.08;;;5.93;;
33138;SDS011;19501;50.948;5.316;2022-12-19T09:39:46;12.45;;;4.75;;
33138;SDS011;19501;50.948;5.316;2022-12-19T09:48:10;15.75;;;5.28;;
33138;SDS011;19501;50.948;5.316;2022-12-19T09:53:28;13.23;;;5.40;;
33138;SDS011;19501;50.948;5.316;2022-12-19T09:55:59;11.35;;;4.45;;
33138;SDS011;19501;50.948;5.316;2022-12-19T10:00:57;15.45;;;5.45;;
33138;SDS011;19501;50.948;5.316;2022-12-19T10:05:55;15.50;;;5.32;;
33138;SDS011;19501;50.948;5.316;2022-12-19T10:22:26;12.98;;;5.55;;
33138;SDS011;19501;50.948;5.316;2022-12-19T10:27:58;16.65;;;5.65;;
33138;SDS011;19501;50.948;5.316;2022-12-19T10:30:28;18.00;;;5.72;;
33138;SDS011;19501;50.948;5.316;2022-12-19T10:33:00;9.32;;;4.00;;
33138;SDS011;19501;50.948;5.316;2022-12-19T10:44:05;12.57;;;4.78;;
33138;SDS011;19501;50.948;5.316;2022-12-19T10:46:47;14.65;;;4.60;;
33138;SDS011;19501;50.948;5.316;2022-12-19T10:49:15;11.90;;;4.78;;
33138;SDS011;19501;50.948;5.316;2022-12-19T11:02:49;15.95;;;5.15;;
33138;SDS011;19501;50.948;5.316;2022-12-19T11:05:28;12.98;;;4.78;;
33138;SDS011;19501;50.948;5.316;2022-12-19T11:10:40;12.65;;;4.93;;
33138;SDS011;19501;50.948;5.316;2022-12-19T11:13:22;13.45;;;5.22;;
33138;SDS011;19501;50.948;5.316;2022-12-19T11:15:55;13.25;;;4.88;;
33138;SDS011;19501;50.948;5.316;2022-12-19T11:18:23;16.30;;;5.10;;
33138;SDS011;19501;50.948;5.316;2022-12-19T11:20:59;12.70;;;5.15;;
33138;SDS011;19501;50.948;5.316;2022-12-19T11:26:31;14.90;;;5.05;;
33138;SDS011;19501;50.948;5.316;2022-12-19T11:29:14;14.38;;;4.93;;
33138;SDS011;19501;50.948;5.316;2022-12-19T11:31:58;10.50;;;4.40;;
33138;SDS011;19501;50.948;5.316;2022-12-19T11:34:27;12.25;;;4.75;;
33138;SDS011;19501;50.948;5.316;2022-12-19T11:36:55;11.73;;;4.72;;
33138;SDS011;19501;50.948;5.316;2022-12-19T11:42:02;17.77;;;6.22;;
33138;SDS011;19501;50.948;5.316;2022-12-19T11:44:46;13.07;;;4.68;;
33138;SDS011;19501;50.948;5.316;2022-12-19T11:47:39;14.20;;;5.57;;
33138;SDS011;19501;50.948;5.316;2022-12-19T11:53:07;11.40;;;4.68;;
33138;SDS011;19501;50.948;5.316;2022-12-19T11:55:45;13.15;;;4.63;;
33138;SDS011;19501;50.948;5.316;2022-12-19T11:58:15;14.50;;;5.28;;
33138;SDS011;19501;50.948;5.316;2022-12-19T12:00:52;16.52;;;4.88;;
33138;SDS011;19501;50.948;5.316;2022-12-19T12:06:07;15.75;;;4.70;;
33138;SDS011;19501;50.948;5.316;2022-12-19T12:14:16;10.70;;;4.40;;
33138;SDS011;19501;50.948;5.316;2022-12-19T12:24:53;13.63;;;4.57;;
33138;SDS011;19501;50.948;5.316;2022-12-19T12:36:39;12.70;;;4.75;;
33138;SDS011;19501;50.948;5.316;2022-12-19T12:41:58;13.52;;;4.20;;
33138;SDS011;19501;50.948;5.316;2022-12-19T12:44:41;11.27;;;4.50;;
33138;SDS011;19501;50.948;5.316;2022-12-19T12:47:13;9.98;;;4.43;;
33138;SDS011;19501;50.948;5.316;2022-12-19T12:55:00;10.27;;;4.32;;
33138;SDS011;19501;50.948;5.316;2022-12-19T12:57:33;12.23;;;4.50;;
33138;SDS011;19501;50.948;5.316;2022-12-19T13:05:24;13.25;;;4.50;;
33138;SDS011;19501;50.948;5.316;2022-12-19T13:08:00;11.05;;;4.35;;
33138;SDS011;19501;50.948;5.316;2022-12-19T13:10:59;11.07;;;4.40;;
33138;SDS011;19501;50.948;5.316;2022-12-19T13:13:47;9.20;;;4.03;;
33138;SDS011;19501;50.948;5.316;2022-12-19T13:19:13;9.32;;;4.13;;
33138;SDS011;19501;50.948;5.316;2022-12-19T13:24:44;10.68;;;4.30;;
33138;SDS011;19501;50.948;5.316;2022-12-19T13:32:25;11.68;;;3.80;;
33138;SDS011;19501;50.948;5.316;2022-12-19T13:34:57;11.13;;;4.15;;
33138;SDS011;19501;50.948;5.316;2022-12-19T13:37:25;10.48;;;3.85;;
33138;SDS011;19501;50.948;5.316;2022-12-19T13:42:23;17.27;;;4.60;;
33138;SDS011;19501;50.948;5.316;2022-12-19T13:45:21;13.13;;;4.30;;
33138;SDS011;19501;50.948;5.316;2022-12-19T13:47:47;12.25;;;4.70;;
33138;SDS011;19501;50.948;5.316;2022-12-19T13:50:21;10.27;;;4.18;;
33138;SDS011;19501;50.948;5.316;2022-12-19T13:53:00;11.82;;;4.22;;
33138;SDS011;19501;50.948;5.316;2022-12-19T13:55:27;10.38;;;3.80;;
33138;SDS011;19501;50.948;5.316;2022-12-19T13:57:54;10.55;;;4.60;;
33138;SDS011;19501;50.948;5.316;2022-12-19T14:00:28;10.20;;;4.50;;
33138;SDS011;19501;50.948;5.316;2022-12-19T14:02:58;9.43;;;4.13;;
33138;SDS011;19501;50.948;5.316;2022-12-19T14:05:29;11.32;;;4.65;;
33138;SDS011;19501;50.948;5.316;2022-12-19T14:07:57;13.82;;;4.82;;
33138;SDS011;19501;50.948;5.316;2022-12-19T14:10:33;12.18;;;4.25;;
33138;SDS011;19501;50.948;5.316;2022-12-19T14:13:05;13.48;;;4.40;;
33138;SDS011;19501;50.948;5.316;2022-12-19T14:20:51;11.60;;;4.38;;
33138;SDS011;19501;50.948;5.316;2022-12-19T14:23:52;11.88;;;4.25;;
33138;SDS011;19501;50.948;5.316;2022-12-19T14:26:34;10.70;;;4.20;;
33138;SDS011;19501;50.948;5.316;2022-12-19T14:29:36;11.73;;;4.40;;
33138;SDS011;19501;50.948;5.316;2022-12-19T14:32:03;11.48;;;4.22;;
33138;SDS011;19501;50.948;5.316;2022-12-19T14:34:32;11.73;;;4.50;;
33138;SDS011;19501;50.948;5.316;2022-12-19T14:36:59;15.77;;;5.22;;
33138;SDS011;19501;50.948;5.316;2022-12-19T14:39:32;9.40;;;3.60;;
33138;SDS011;19501;50.948;5.316;2022-12-19T14:42:00;13.88;;;4.80;;
33138;SDS011;19501;50.948;5.316;2022-12-19T14:49:47;13.15;;;4.70;;
33138;SDS011;19501;50.948;5.316;2022-12-19T14:55:14;11.23;;;4.68;;
33138;SDS011;19501;50.948;5.316;2022-12-19T14:57:52;17.73;;;5.20;;
33138;SDS011;19501;50.948;5.316;2022-12-19T15:00:25;11.55;;;4.53;;
33138;SDS011;19501;50.948;5.316;2022-12-19T15:02:53;14.70;;;5.20;;
33138;SDS011;19501;50.948;5.316;2022-12-19T15:05:24;14.52;;;4.93;;
33138;SDS011;19501;50.948;5.316;2022-12-19T15:07:52;13.98;;;4.93;;
33138;SDS011;19501;50.948;5.316;2022-12-19T15:10:23;11.73;;;4.63;;
33138;SDS011;19501;50.948;5.316;2022-12-19T15:13:00;11.32;;;4.82;;
33138;SDS011;19501;50.948;5.316;2022-12-19T15:20:57;14.85;;;4.80;;
33138;SDS011;19501;50.948;5.316;2022-12-19T15:23:27;11.88;;;4.78;;
33138;SDS011;19501;50.948;5.316;2022-12-19T15:25:54;13.27;;;5.22;;
33138;SDS011;19501;50.948;5.316;2022-12-19T15:28:22;14.73;;;5.32;;
33138;SDS011;19501;50.948;5.316;2022-12-19T15:30:56;13.80;;;5.50;;
33138;SDS011;19501;50.948;5.316;2022-12-19T15:33:26;12.07;;;4.63;;
33138;SDS011;19501;50.948;5.316;2022-12-19T15:35:52;15.45;;;5.07;;
33138;SDS011;19501;50.948;5.316;2022-12-19T15:38:19;11.93;;;5.05;;
33138;SDS011;19501;50.948;5.316;2022-12-19T15:40:45;14.40;;;4.78;;
33138;SDS011;19501;50.948;5.316;2022-12-19T15:43:17;10.93;;;4.93;;
33138;SDS011;19501;50.948;5.316;2022-12-19T15:45:46;13.70;;;5.15;;
33138;SDS011;19501;50.948;5.316;2022-12-19T15:48:22;15.00;;;4.70;;
33138;SDS011;19501;50.948;5.316;2022-12-19T15:50:47;15.20;;;5.05;;
33138;SDS011;19501;50.948;5.316;2022-12-19T15:55:52;13.13;;;4.80;;
33138;SDS011;19501;50.948;5.316;2022-12-19T15:58:18;15.85;;;5.28;;
33138;SDS011;19501;50.948;5.316;2022-12-19T16:00:49;13.02;;;5.43;;
33138;SDS011;19501;50.948;5.316;2022-12-19T16:05:44;11.45;;;4.38;;
33138;SDS011;19501;50.948;5.316;2022-12-19T16:08:14;12.45;;;4.70;;
33138;SDS011;19501;50.948;5.316;2022-12-19T16:10:44;14.82;;;5.18;;
33138;SDS011;19501;50.948;5.316;2022-12-19T16:13:19;13.00;;;4.47;;
33138;SDS011;19501;50.948;5.316;2022-12-19T16:15:47;12.40;;;4.53;;
33138;SDS011;19501;50.948;5.316;2022-12-19T16:18:14;11.82;;;4.82;;
33138;SDS011;19501;50.948;5.316;2022-12-19T16:20:40;9.20;;;4.32;;
33138;SDS011;19501;50.948;5.316;2022-12-19T16:23:06;14.15;;;5.13;;
33138;SDS011;19501;50.948;5.316;2022-12-19T16:25:34;12.93;;;4.90;;
33138;SDS011;19501;50.948;5.316;2022-12-19T16:28:06;9.77;;;4.38;;
33138;SDS011;19501;50.948;5.316;2022-12-19T16:30:41;11.10;;;4.82;;
33138;SDS011;19501;50.948;5.316;2022-12-19T16:33:18;9.73;;;4.65;;
33138;SDS011;19501;50.948;5.316;2022-12-19T16:35:45;12.15;;;4.85;;
33138;SDS011;19501;50.948;5.316;2022-12-19T16:38:12;12.50;;;4.47;;
33138;SDS011;19501;50.948;5.316;2022-12-19T16:40:38;13.55;;;5.00;;
33138;SDS011;19501;50.948;5.316;2022-12-19T16:43:26;12.52;;;4.60;;
33138;SDS011;19501;50.948;5.316;2022-12-19T16:46:00;16.23;;;4.80;;
33138;SDS011;19501;50.948;5.316;2022-12-19T16:48:29;13.52;;;4.97;;
33138;SDS011;19501;50.948;5.316;2022-12-19T16:50:56;14.48;;;5.13;;
33138;SDS011;19501;50.948;5.316;2022-12-19T16:53:23;11.82;;;5.07;;
33138;SDS011;19501;50.948;5.316;2022-12-19T16:55:49;13.00;;;4.78;;
33138;SDS011;19501;50.948;5.316;2022-12-19T16:58:18;11.98;;;4.95;;
33138;SDS011;19501;50.948;5.316;2022-12-19T17:00:47;13.95;;;4.82;;
33138;SDS011;19501;50.948;5.316;2022-12-19T17:06:14;12.32;;;4.85;;
33138;SDS011;19501;50.948;5.316;2022-12-19T17:08:41;11.38;;;4.35;;
33138;SDS011;19501;50.948;5.316;2022-12-19T17:11:14;15.10;;;4.95;;
33138;SDS011;19501;50.948;5.316;2022-12-19T17:13:42;14.80;;;4.75;;
33138;SDS011;19501;50.948;5.316;2022-12-19T17:16:10;12.27;;;4.70;;
33138;SDS011;19501;50.948;5.316;2022-12-19T17:18:40;12.55;;;4.97;;
33138;SDS011;19501;50.948;5.316;2022-12-19T17:21:13;12.32;;;4.50;;
33138;SDS011;19501;50.948;5.316;2022-12-19T17:23:41;15.35;;;5.53;;
33138;SDS011;19501;50.948;5.316;2022-12-19T17:26:07;11.02;;;4.30;;
33138;SDS011;19501;50.948;5.316;2022-12-19T17:28:33;12.00;;;4.68;;
33138;SDS011;19501;50.948;5.316;2022-12-19T17:31:01;14.02;;;5.15;;
33138;SDS011;19501;50.948;5.316;2022-12-19T17:33:32;11.32;;;4.63;;